Wateringbury, United Kingdom
Current Conditions -  °F | °C
As of 12:50 PM on Saturday 25 Oct 2014 (Local Time) from EGKB Reporting Station
Broken Clouds Broken Clouds  
Wind Chill: 55°   Ceiling: 3800
Heat Index: 55°   Visibility: 6mi
Dew Point: 41°   Wind: 12mph
Humidity: 58%   Direction: 250°WSW
Pressure: 30.09"   Gusts: NA
Location:  51.26°N, 0.42°E
Report Text: EGKB 251150Z 25010KT 220V290 9999 BKN038 13/05 Q1019
Loading
Personal Weather Stations






























Interactive Weather Map
Tropical Storm Tracking
New forecast layout! Learn more

10-Day Weather Forecast

Advertisements
Track Severe Weather on mobile